• Join FlightAware (Why Join?)
  • Login
  • US Flag 
09:22AM EDT


 

Airport Tracker/Info


-or-


 

Live Flight TrackerFlight Track Log ✈ SWA1259 ✈ 21-Apr-2013 ✈ KMDW - KLAS

Flight Track Log - Related Links

Times and Time Zones

All times are in EDT time to prevent confusion due to time zone crossing. See the SWA1259 flight status page for this flight to view local times or setup timezone preferences in your user account.

Time Position Orientation Groundspeed Altitude Reporting Facility
EDT Latitude Longitude Course Direction KTS MPH feet Rate Location/Type
11:50AM 41.7167 -87.6833 143° Southeast 218 251 3,500  Level Chicago TRACON
11:51AM 41.7333 -87.7667 285° West 223 257 4,900 2,700 Climbing Chicago TRACON
11:52AM 41.7500 -87.8333 289° West 220 253 8,700 3,300 Climbing Chicago TRACON
11:52AM 41.7611 -87.8778 289° West 220 253 10,100 1,980 Climbing Chicago Center
11:53AM 41.7572 -87.9758 267° West 260 299 11,900 960 Climbing Chicago Center
11:54AM 41.7360 -88.4653 264° West  Level FlightAware Approximate
11:54AM 41.7539 -88.0772 268° West 274 315 12,200  Level Chicago Center
11:55AM 41.7497 -88.1886 267° West 300 345 13,800 2,160 Climbing Chicago Center
11:56AM 41.7433 -88.3444 267° West 350 403 16,700 2,460 Climbing Chicago Center
11:57AM 41.7386 -88.4786 267° West 361 415 19,000 2,520 Climbing Chicago Center
11:58AM 41.7358 -88.6167 269° West 372 428 21,900 2,340 Climbing Chicago Center
12:00PM 41.7342 -88.7581 269° West 380 437 24,000 2,100 Climbing Chicago Center
12:01PM 41.7239 -88.9350 266° West 399 459 26,400 2,040 Climbing Chicago Center
12:02PM 41.7147 -89.0861 265° West 407 468 28,200 1,740 Climbing Chicago Center
12:03PM 41.7092 -89.2428 267° West 423 487 30,000 1,800 Climbing Chicago Center
12:04PM 41.7019 -89.3953 266° West 415 478 31,900 1,860 Climbing Chicago Center
12:05PM 41.6964 -89.5603 267° West 414 476 33,900 1,440 Climbing Chicago Center
12:06PM 41.6892 -89.7125 266° West 412 474 34,900 1,020 Climbing Chicago Center
12:07PM 41.6825 -89.8594 267° West 402 463 36,000 480 Climbing Chicago Center
12:08PM 41.6767 -90.0069 267° West 400 460 36,000  Level Chicago Center
12:09PM 41.6697 -90.1550 266° West 402 463 36,000  Level Chicago Center
12:10PM 41.6478 -90.3042 259° West 411 473 36,000 480 Level Chicago Center
12:11PM 41.6356 -90.4819 265° West 404 465 37,000 840 Climbing Chicago Center
12:12PM 41.6225 -90.6281 263° West 402 463 37,800 480 Climbing Chicago Center
12:13PM 41.6106 -90.7792 264° West 411 473 38,000 60 Climbing Chicago Center
12:14PM 41.5978 -90.9322 264° West 416 479 38,000  Level Chicago Center
12:15PM 41.5850 -91.0856 264° West 417 480 38,000  Level Chicago Center
12:16PM 41.5717 -91.2397 263° West 419 482 38,000  Level Chicago Center
12:17PM 41.5561 -91.4225 264° West 416 479 38,000  Level Chicago Center
12:18PM 41.5436 -91.5758 264° West 417 480 38,000  Level Chicago Center
12:19PM 41.5292 -91.7269 263° West 415 478 38,000  Level Chicago Center
12:20PM 41.5147 -91.8783 263° West 413 475 38,000  Level Chicago Center
12:21PM 41.5011 -92.0294 263° West 413 475 38,000  Level Chicago Center
12:22PM 41.4872 -92.1794 263° West 411 473 38,000  Level Chicago Center
12:23PM 41.4733 -92.3303 263° West 413 475 38,000  Level Chicago Center
12:24PM 41.4567 -92.5014 263° West 412 474 38,000  Level Chicago Center
12:25PM 41.4419 -92.6533 263° West 416 479 38,000  Level Chicago Center
12:26PM 41.4364 -92.7144 263° West 415 478 38,000  Level Minneapolis Center
12:27PM 41.4206 -92.8639 262° West 414 476 38,000  Level Minneapolis Center
12:28PM 41.4025 -93.0436 262° West 412 474 38,000  Level Minneapolis Center
12:29PM 41.3878 -93.1906 262° West 408 470 38,000  Level Minneapolis Center
12:30PM 41.3722 -93.3386 262° West 407 468 38,000  Level Minneapolis Center
12:31PM 41.3564 -93.4847 262° West 406 467 38,000  Level Minneapolis Center
12:32PM 41.3406 -93.6314 262° West 404 465 38,000  Level Minneapolis Center
12:33PM 41.3261 -93.7733 262° West 399 459 38,000  Level Minneapolis Center
12:34PM 41.3075 -93.9497 262° West 403 464 38,000  Level Minneapolis Center
12:35PM 41.2903 -94.0972 261° West 407 468 38,000  Level Minneapolis Center
12:36PM 41.2742 -94.2514 262° West 406 467 38,000  Level Minneapolis Center
12:37PM 41.2569 -94.3989 261° West 404 465 38,000  Level Minneapolis Center
12:38PM 41.2400 -94.5461 261° West 405 466 38,000  Level Minneapolis Center
12:39PM 41.2231 -94.6942 261° West 405 466 38,000  Level Minneapolis Center
12:40PM 41.2058 -94.8419 261° West 405 466 38,000  Level Minneapolis Center
12:41PM 41.1886 -94.9908 261° West 407 468 38,000  Level Minneapolis Center
12:42PM 41.1697 -95.1389 260° West 407 468 38,000  Level Minneapolis Center
12:43PM 41.1481 -95.3178 261° West 408 470 38,000  Level Minneapolis Center
12:44PM 41.1286 -95.4672 260° West 409 471 38,000  Level Minneapolis Center
12:45PM 41.1103 -95.6169 261° West 409 471 38,000  Level Minneapolis Center
12:46PM 41.0917 -95.7642 261° West 405 466 38,000  Level Minneapolis Center
12:47PM 41.0731 -95.9128 261° West 405 466 38,000  Level Minneapolis Center
12:48PM 41.0544 -96.0608 261° West 404 465 38,000  Level Minneapolis Center
12:49PM 41.0350 -96.2100 260° West 406 467 38,000  Level Minneapolis Center
12:50PM 41.0153 -96.3567 260° West 405 466 38,000  Level Minneapolis Center
12:51PM 40.9958 -96.5033 260° West 403 464 38,000  Level Minneapolis Center
12:52PM 40.9756 -96.6494 260° West 403 464 38,000  Level Minneapolis Center
12:53PM 40.9561 -96.7950 260° West 401 461 38,000  Level Minneapolis Center
12:54PM 40.9325 -96.9708 260° West 404 465 38,000  Level Minneapolis Center
12:55PM 40.9117 -97.1150 259° West 402 463 38,000  Level Minneapolis Center
12:56PM 40.8925 -97.2603 260° West 401 461 38,000  Level Minneapolis Center
12:58PM 40.8700 -97.4147 259° West 402 463 38,000  Level Minneapolis Center
12:59PM 40.8497 -97.5603 260° West 402 463 38,000  Level Minneapolis Center
01:00PM 40.8283 -97.7067 259° West 404 465 38,000  Level Minneapolis Center
01:01PM 40.8075 -97.8525 259° West 404 465 38,000  Level Minneapolis Center
01:02PM 40.7864 -97.9969 259° West 401 461 38,000  Level Minneapolis Center
01:03PM 40.7653 -98.1417 259° West 400 460 38,000  Level Minneapolis Center
01:04PM 40.7436 -98.2842 259° West 397 457 38,000  Level Minneapolis Center
01:05PM 40.7225 -98.4272 259° West 395 455 38,000  Level Minneapolis Center
01:06PM 40.6964 -98.5986 259° West 394 453 38,000  Level Minneapolis Center
01:07PM 40.6747 -98.7414 259° West 395 455 38,000  Level Minneapolis Center
01:08PM 40.6522 -98.8847 258° West 396 456 38,000  Level Minneapolis Center
01:09PM 40.6311 -99.0278 259° West 396 456 38,000  Level Minneapolis Center
01:10PM 40.6067 -99.1706 257° West 398 458 38,000  Level Minneapolis Center
01:10PM 40.5936 -99.2572 259° West 398 458 38,000  Level Denver Center
01:11PM 40.5706 -99.4025 258° West 402 463 38,000  Level Denver Center
01:12PM 40.5475 -99.5450 258° West 399 459 38,000  Level Denver Center
01:13PM 40.5244 -99.6892 258° West 401 461 38,000  Level Denver Center
01:15PM 40.5008 -99.8325 258° West 400 460 38,000  Level Denver Center
01:16PM 40.4747 -99.9881 258° West 400 460 38,000  Level Denver Center
01:17PM 40.4528 -100.1258 258° West 401 461 38,000  Level Denver Center
01:18PM 40.4258 -100.2836 257° West 397 457 38,000  Level Denver Center
01:19PM 40.4033 -100.4181 258° West 395 455 38,000  Level Denver Center
01:20PM 40.3758 -100.5742 257° West 393 452 38,000  Level Denver Center
01:21PM 40.3528 -100.7075 257° West 390 449 38,000  Level Denver Center
01:22PM 40.3231 -100.8828 258° West 383 441 38,000  Level Denver Center
01:23PM 40.2994 -101.0142 257° West 385 443 38,000  Level Denver Center
01:24PM 40.2725 -101.1681 257° West 386 444 38,000  Level Denver Center
01:25PM 40.2411 -101.3436 257° West 387 445 38,000  Level Denver Center
01:26PM 40.2175 -101.4753 257° West 389 448 38,000  Level Denver Center
01:27PM 40.1939 -101.6081 257° West 390 449 38,000  Level Denver Center
01:28PM 40.1653 -101.7644 257° West 396 456 38,000  Level Denver Center
01:29PM 40.1406 -101.8986 256° West 395 455 38,000  Level Denver Center
01:30PM 40.1114 -102.0564 256° West 400 460 38,000  Level Denver Center
01:31PM 40.0861 -102.1922 256° West 402 463 38,000  Level Denver Center
01:33PM 40.0561 -102.3497 256° West 401 461 38,000  Level Denver Center
01:34PM 40.0358 -102.4606 257° West 396 456 38,000  Level Denver Center
01:35PM 40.0017 -102.6383 256° West 396 456 38,000  Level Denver Center
01:36PM 39.9731 -102.7847 256° West 397 457 38,000  Level Denver Center
01:37PM 39.9461 -102.9275 256° West 402 463 38,000  Level Denver Center
01:38PM 39.9181 -103.0692 256° West 402 463 38,000  Level Denver Center
01:39PM 39.8908 -103.2136 256° West 407 468 38,000  Level Denver Center
01:40PM 39.8631 -103.3556 256° West 403 464 38,000  Level Denver Center
01:41PM 39.8342 -103.4956 255° West 399 459 38,000  Level Denver Center
01:42PM 39.8067 -103.6369 256° West 399 459 38,000  Level Denver Center
01:43PM 39.7731 -103.8056 256° West 413 475 38,000  Level Denver Center
01:44PM 39.7444 -103.9469 255° West 406 467 38,000  Level Denver Center
01:45PM 39.7153 -104.0900 255° West 405 466 38,000  Level Denver Center
01:46PM 39.6856 -104.2308 255° West 401 461 38,000  Level Denver Center
01:47PM 39.6564 -104.3736 255° West 405 466 38,000  Level Denver Center
01:48PM 39.6269 -104.5158 255° West 404 465 38,000  Level Denver Center
01:49PM 39.5942 -104.6686 254° West 408 470 38,000  Level Denver Center
01:50PM 39.5639 -104.8103 255° West 403 464 38,000  Level Denver Center
01:51PM 39.5342 -104.9494 255° West 400 460 38,000  Level Denver Center
01:52PM 39.5036 -105.0883 254° West 396 456 38,000  Level Denver Center
01:53PM 39.4736 -105.2292 255° West 402 463 38,000  Level Denver Center
01:54PM 39.4386 -105.3883 254° West 391 450 38,000  Level Denver Center
01:55PM 39.4186 -105.4789 254° West 392 451 38,000  Level Denver Center
01:56PM 39.3800 -105.6603 255° West 388 447 38,000  Level Denver Center
01:57PM 39.3489 -105.7989 254° West 396 456 38,000  Level Denver Center
01:58PM 39.3175 -105.9414 254° West 407 468 38,000  Level Denver Center
01:59PM 39.2856 -106.0828 254° West 406 467 38,000  Level Denver Center
02:00PM 39.2514 -106.2394 254° West 406 467 38,000  Level Denver Center
02:01PM 39.2203 -106.3722 253° West 405 466 38,000  Level Denver Center
02:03PM 39.1853 -106.5278 254° West 405 466 38,000  Level Denver Center
02:04PM 39.1550 -106.6594 254° West 401 461 38,000  Level Denver Center
02:05PM 39.1200 -106.8125 254° West 400 460 38,000 240 Level Denver Center
02:06PM 39.0886 -106.9433 253° West 399 459 38,500 960 Climbing Denver Center
02:07PM 39.0542 -107.0914 253° West 387 445 40,000 720 Climbing Denver Center
02:08PM 39.0228 -107.2192 252° West 393 452 40,000  Level Denver Center
02:09PM 38.9931 -107.3467 253° West 391 450 40,000  Level Denver Center
02:10PM 38.9575 -107.4939 253° West 387 445 40,000  Level Denver Center
02:11PM 38.9294 -107.6169 254° West 378 435 40,000  Level Denver Center
02:12PM 38.8939 -107.7608 252° West 378 435 40,000  Level Denver Center
02:13PM 38.8633 -107.8864 253° West 381 438 40,000  Level Denver Center
02:14PM 38.8292 -108.0297 253° West 378 435 40,000  Level Denver Center
02:15PM 38.7983 -108.1519 252° West 376 433 40,000  Level Denver Center
02:16PM 38.7683 -108.2733 252° West 371 427 40,000  Level Denver Center
02:17PM 38.7342 -108.4150 253° West 371 427 40,000  Level Denver Center
02:18PM 38.7047 -108.5350 253° West 369 425 40,000  Level Denver Center
02:19PM 38.6692 -108.6756 252° West 371 427 40,000  Level Denver Center
02:20PM 38.6389 -108.7967 252° West 372 428 40,000  Level Denver Center
02:21PM 38.6031 -108.9383 252° West 374 430 40,000  Level Denver Center
02:22PM 38.5708 -109.0594 251° West 374 430 40,000  Level Denver Center
02:23PM 38.5403 -109.1833 253° West 380 437 40,000  Level Denver Center
02:24PM 38.5031 -109.3258 252° West 380 437 40,000  Level Denver Center
02:25PM 38.4719 -109.4469 252° West 376 433 40,000  Level Denver Center
02:26PM 38.4469 -109.5475 252° West 373 429 40,000  Level Denver Center
02:27PM 38.4044 -109.7083 251° West 375 432 40,000  Level Denver Center
02:28PM 38.3500 -109.8411 242° Southwest 379 436 40,000  Level Denver Center
02:29PM 38.3056 -109.9569 244° Southwest 378 435 40,000  Level Denver Center
02:30PM 38.2519 -110.0928 243° Southwest 383 441 40,000 -180 Level Denver Center
02:31PM 38.2053 -110.2100 243° Southwest 388 447 39,700 -600 Descending Denver Center
02:32PM 38.1592 -110.3272 243° Southwest 387 445 38,800 -1,020 Descending Denver Center
02:33PM 38.1042 -110.4653 243° Southwest 391 450 37,700 -1,260 Descending Denver Center
02:34PM 38.0556 -110.5889 243° Southwest 405 466 36,200 -840 Descending Denver Center
02:36PM 37.9994 -110.7306 243° Southwest 401 461 36,000 -480 Descending Denver Center
02:37PM 37.9478 -110.8575 243° Southwest 404 465 35,300 -540 Descending Denver Center
02:38PM 37.9000 -110.9775 243° Southwest 389 448 35,000 -300 Descending Denver Center
02:39PM 37.8508 -111.0961 242° Southwest 381 438 34,700 -420 Descending Denver Center
02:39PM 37.8322 -111.1450 244° Southwest 381 438 34,400 -900 Descending Salt Lake Center
02:40PM 37.7831 -111.2656 243° Southwest 384 442 33,400 -1,080 Descending Salt Lake Center
02:41PM 37.7244 -111.4056 242° Southwest 378 435 32,200 -720 Descending Salt Lake Center
02:42PM 37.6778 -111.5206 243° Southwest 371 427 32,000 -120 Descending Salt Lake Center
02:43PM 37.6303 -111.6361 243° Southwest 371 427 32,000  Level Salt Lake Center
02:44PM 37.6006 -111.7050 241° Southwest 373 429 32,000  Level Denver Center
02:45PM 37.5528 -111.8225 243° Southwest 376 433 32,000  Level Denver Center
02:46PM 37.4828 -111.9864 242° Southwest 375 432 32,000  Level Salt Lake Center
02:47PM 37.4358 -112.1022 243° Southwest 371 427 32,000  Level Salt Lake Center
02:48PM 37.4125 -112.1486 238° Southwest 376 433 32,000 -720 Level Los Angeles Center
02:48PM 37.3856 -112.2197 245° Southwest 377 434 31,300 -1,260 Descending Salt Lake Center
02:49PM 37.3558 -112.2886 242° Southwest 372 428 30,700 -1,140 Descending Los Angeles Center
02:50PM 37.3058 -112.4022 241° Southwest 369 425 29,600 -1,020 Descending Los Angeles Center
02:51PM 37.2572 -112.5175 242° Southwest 371 427 28,600 -1,020 Descending Los Angeles Center
02:52PM 37.2089 -112.6314 242° Southwest 368 423 27,600 -1,020 Descending Los Angeles Center
02:52PM 37.1803 -112.6994 242° Southwest 368 423 27,000 -1,080 Descending Salt Lake Center
02:53PM 37.1322 -112.8111 242° Southwest 364 419 25,900 -960 Descending Salt Lake Center
02:54PM 37.1125 -112.8553 241° Southwest 361 415 25,600 -1,080 Descending Los Angeles Center
02:55PM 37.0575 -112.9875 243° Southwest 357 411 24,300 -1,140 Descending Los Angeles Center
02:56PM 37.0097 -113.0942 241° Southwest 353 406 23,300 -1,020 Descending Los Angeles Center
02:57PM 36.9642 -113.2008 242° Southwest 349 402 22,300 -1,020 Descending Los Angeles Center
02:58PM 36.9172 -113.3072 241° Southwest 350 403 21,300 -960 Descending Los Angeles Center
02:59PM 36.8719 -113.4117 242° Southwest 345 397 20,400 -960 Descending Los Angeles Center
03:00PM 36.8253 -113.5175 241° Southwest 347 399 19,400 -960 Descending Los Angeles Center
03:01PM 36.7767 -113.6267 241° Southwest 356 410 18,500 -960 Descending Los Angeles Center
03:02PM 36.7211 -113.7558 242° Southwest 353 406 17,400 -1,020 Descending Los Angeles Center
03:03PM 36.6753 -113.8608 241° Southwest 347 399 16,400 -1,020 Descending Los Angeles Center
03:04PM 36.6286 -113.9628 240° Southwest 343 395 15,400 -1,020 Descending Los Angeles Center
03:05PM 36.5842 -114.0647 242° Southwest 336 387 14,400 -1,020 Descending Los Angeles Center
03:06PM 36.5381 -114.1658 240° Southwest 337 388 13,400 -1,020 Descending Los Angeles Center
03:07PM 36.4908 -114.2686 240° Southwest 333 383 12,400 -840 Descending Los Angeles Center
03:08PM 36.4553 -114.3572 244° Southwest 323 372 12,000 -420 Descending Los Angeles Center
03:08PM 36.4464 -114.3669 221° Southwest 328 377 12,000  Level Los Angeles Center
03:09PM 36.3964 -114.4731 240° Southwest 297 342 12,000  Level Los Angeles Center
03:10PM 36.3158 -114.4997 195° South 298 343 12,000 -600 Level Los Angeles Center
03:11PM 36.2322 -114.5217 192° South 300 345 10,900 -1,020 Descending Los Angeles Center
03:13PM 36.1533 -114.5375 189° South 293 337 10,000 -780 Descending Los Angeles Center
03:14PM 36.1008 -114.5792 213° Southwest 248 285 9,300 -960 Descending Los Angeles Center
03:15PM 36.0875 -114.6692 260° West 224 258 8,100 -780 Descending Los Angeles Center
03:16PM 36.0719 -114.7450 256° West 223 257 7,800 -600 Descending Los Angeles Center
03:17PM 36.0739 -114.8228 272° West 225 259 7,000 -840 Descending Los Angeles Center
03:18PM 36.0728 -114.8953 269° West 203 234 6,200 -960 Descending Los Angeles Center
03:19PM 36.0736 -114.9589 271° West 178 205 5,100 -1,200 Descending Los Angeles Center
03:20PM 36.0742 -115.0169 271° West 188 216 3,700 -1,140 Descending Los Angeles Center
03:21PM 36.0736 -115.0678 269° West 164 189 3,000 -840 Descending Los Angeles Center
03:22PM 36.0742 -115.1322 271° West 158 182 2,000 -780 Descending Los Angeles Center
03:24PM 36.0667 -115.1500 219° Southwest  Level FlightAware Approximate